createdAt,value
2017-08-27T00:00:02.314Z,996.0
2017-08-27T00:01:03.844Z,996.0
2017-08-27T00:02:05.335Z,996.0
2017-08-27T00:03:06.849Z,996.0
2017-08-27T00:04:08.413Z,996.1
2017-08-27T00:05:09.941Z,995.9
2017-08-27T00:06:11.449Z,995.9
2017-08-27T00:07:12.948Z,995.9
2017-08-27T00:08:14.509Z,995.9
2017-08-27T00:09:16.040Z,995.9
2017-08-27T00:10:17.541Z,995.9
2017-08-27T00:11:19.026Z,995.9
2017-08-27T00:12:20.551Z,995.9
2017-08-27T00:13:22.179Z,995.9
2017-08-27T00:14:23.734Z,995.9
2017-08-27T00:15:25.256Z,995.9
2017-08-27T00:16:26.823Z,995.9
2017-08-27T00:17:28.370Z,995.8
2017-08-27T00:18:29.873Z,995.9
2017-08-27T00:19:31.375Z,995.9
2017-08-27T00:20:32.892Z,996.0
2017-08-27T00:21:34.548Z,996.0
2017-08-27T00:22:36.060Z,996.0
2017-08-27T00:23:37.600Z,995.9
2017-08-27T00:24:39.079Z,995.9
2017-08-27T00:25:40.604Z,995.9
2017-08-27T00:26:42.040Z,995.9
2017-08-27T00:27:43.522Z,996.0
2017-08-27T00:28:45.060Z,995.9
2017-08-27T00:29:46.490Z,995.9
2017-08-27T00:30:48.098Z,995.9
2017-08-27T00:31:49.614Z,995.9
2017-08-27T00:32:51.152Z,995.9
2017-08-27T00:33:52.674Z,995.9
2017-08-27T00:34:54.239Z,995.9
2017-08-27T00:35:55.838Z,995.9
2017-08-27T00:36:57.491Z,995.9
2017-08-27T00:37:58.963Z,995.9
2017-08-27T00:39:00.486Z,995.9
2017-08-27T00:40:02.101Z,995.9
2017-08-27T00:41:03.668Z,995.9
2017-08-27T00:42:05.180Z,995.9
2017-08-27T00:43:06.718Z,995.9
2017-08-27T00:44:08.160Z,995.9
2017-08-27T00:45:09.663Z,995.9
2017-08-27T00:46:11.254Z,995.9
2017-08-27T00:47:12.801Z,995.9
2017-08-27T00:48:14.359Z,995.9
2017-08-27T00:49:15.842Z,995.9
2017-08-27T00:50:17.399Z,995.9
2017-08-27T00:51:18.946Z,995.9
2017-08-27T00:52:20.470Z,995.9
2017-08-27T00:53:22.073Z,995.9
2017-08-27T00:54:23.568Z,995.9
2017-08-27T00:55:25.107Z,995.9
2017-08-27T00:56:26.618Z,996.0
2017-08-27T00:57:28.134Z,996.0
2017-08-27T00:58:29.669Z,996.0
2017-08-27T00:59:31.311Z,996.0
2017-08-27T01:00:32.824Z,996.0
2017-08-27T01:01:34.370Z,996.0
2017-08-27T01:02:35.900Z,996.0
2017-08-27T01:03:37.418Z,996.0
2017-08-27T01:04:38.954Z,996.0
2017-08-27T01:05:40.519Z,996.0
2017-08-27T01:06:42.073Z,996.0
2017-08-27T01:07:43.659Z,996.0
2017-08-27T01:08:45.222Z,996.0
2017-08-27T01:09:46.737Z,996.0
2017-08-27T01:10:48.247Z,996.0
2017-08-27T01:11:49.855Z,996.0
2017-08-27T01:12:51.405Z,995.9
2017-08-27T01:13:52.996Z,996.0
2017-08-27T01:14:54.475Z,996.0
2017-08-27T01:15:56.014Z,996.0
2017-08-27T01:16:57.599Z,996.0
2017-08-27T01:17:59.059Z,996.0
2017-08-27T01:19:00.580Z,996.0
2017-08-27T01:20:02.141Z,996.0
2017-08-27T01:21:03.686Z,996.0
2017-08-27T01:22:05.303Z,996.0
2017-08-27T01:23:06.805Z,996.0
2017-08-27T01:24:08.333Z,996.1
2017-08-27T01:25:09.835Z,996.1
2017-08-27T01:26:11.465Z,996.1
2017-08-27T01:27:12.982Z,996.1
2017-08-27T01:28:14.571Z,996.1
2017-08-27T01:29:16.138Z,996.1
2017-08-27T01:30:17.693Z,996.1
2017-08-27T01:31:19.214Z,996.1
2017-08-27T01:32:20.756Z,996.1
2017-08-27T01:33:22.255Z,996.1
2017-08-27T01:34:23.845Z,996.1
2017-08-27T01:35:25.365Z,996.1
2017-08-27T01:36:26.971Z,996.1
2017-08-27T01:37:28.525Z,996.1
2017-08-27T01:38:30.100Z,996.1
2017-08-27T01:39:31.708Z,996.1
2017-08-27T01:40:33.337Z,996.1
2017-08-27T01:41:34.947Z,996.1
2017-08-27T01:42:36.613Z,996.1
2017-08-27T01:43:38.085Z,996.2
2017-08-27T01:44:39.816Z,996.2
2017-08-27T01:45:41.430Z,996.2
2017-08-27T01:46:42.987Z,996.2
2017-08-27T01:47:44.543Z,996.2
2017-08-27T01:48:46.156Z,996.2
2017-08-27T01:49:47.743Z,996.2
2017-08-27T01:50:49.245Z,996.2
2017-08-27T01:51:50.818Z,996.2
2017-08-27T01:52:52.326Z,996.2
2017-08-27T01:53:53.905Z,996.2
2017-08-27T01:54:55.476Z,996.2
2017-08-27T01:55:57.013Z,996.2
2017-08-27T01:56:58.555Z,996.2
2017-08-27T01:58:00.194Z,996.2
2017-08-27T01:59:01.736Z,996.2
2017-08-27T02:00:03.304Z,996.2
2017-08-27T02:01:04.795Z,996.2
2017-08-27T02:02:06.361Z,996.2
2017-08-27T02:03:07.923Z,996.2
2017-08-27T02:04:09.413Z,996.2
2017-08-27T02:05:10.991Z,996.2
2017-08-27T02:06:12.518Z,996.2
2017-08-27T02:07:14.022Z,996.2
2017-08-27T02:08:15.541Z,996.2
2017-08-27T02:09:17.026Z,996.2
2017-08-27T02:10:18.582Z,996.3
2017-08-27T02:11:20.111Z,996.3
2017-08-27T02:12:21.699Z,996.3
2017-08-27T02:13:23.207Z,996.3
2017-08-27T02:14:24.715Z,996.3
2017-08-27T02:15:26.277Z,996.3
2017-08-27T02:16:27.792Z,996.3
2017-08-27T02:17:29.294Z,996.3
2017-08-27T02:18:30.853Z,996.3
2017-08-27T02:19:32.345Z,996.3
2017-08-27T02:20:33.904Z,996.2
2017-08-27T02:21:35.401Z,996.2
2017-08-27T02:22:36.946Z,996.2
2017-08-27T02:23:38.459Z,996.2
2017-08-27T02:24:40.034Z,996.2
2017-08-27T02:25:41.589Z,996.3
2017-08-27T02:26:43.252Z,996.2
2017-08-27T02:27:44.796Z,996.2
2017-08-27T02:28:46.378Z,996.2
2017-08-27T02:29:47.932Z,996.2
2017-08-27T02:30:49.594Z,996.2
2017-08-27T02:31:51.120Z,996.2
2017-08-27T02:32:52.714Z,996.2
2017-08-27T02:33:54.262Z,996.3
2017-08-27T02:34:55.797Z,996.2
2017-08-27T02:35:57.385Z,996.2
2017-08-27T02:36:58.993Z,996.2
2017-08-27T02:38:00.543Z,996.2
2017-08-27T02:39:02.068Z,996.2
2017-08-27T02:40:03.687Z,996.2
2017-08-27T02:41:05.209Z,996.2
2017-08-27T02:42:06.787Z,996.2
2017-08-27T02:43:08.316Z,996.2
2017-08-27T02:44:09.891Z,996.2
2017-08-27T02:45:11.459Z,996.2
2017-08-27T02:46:12.998Z,996.2
2017-08-27T02:47:14.641Z,996.2
2017-08-27T02:48:16.193Z,996.2
2017-08-27T02:49:17.729Z,996.2
2017-08-27T02:50:19.268Z,996.3
2017-08-27T02:51:20.867Z,996.3
2017-08-27T02:52:22.374Z,996.3
2017-08-27T02:53:23.929Z,996.2
2017-08-27T02:54:25.446Z,996.3
2017-08-27T02:55:27.090Z,996.3
2017-08-27T02:56:28.642Z,996.3
2017-08-27T02:57:30.178Z,996.3
2017-08-27T02:58:31.654Z,996.3
2017-08-27T02:59:33.212Z,996.3
2017-08-27T03:00:34.788Z,996.3
2017-08-27T03:01:36.326Z,996.2
2017-08-27T03:02:37.875Z,996.3
2017-08-27T03:03:39.644Z,996.2
2017-08-27T03:04:41.247Z,996.3
2017-08-27T03:05:42.845Z,996.3
2017-08-27T03:06:44.376Z,996.3
2017-08-27T03:07:45.987Z,996.3
2017-08-27T03:08:47.521Z,996.3
2017-08-27T03:09:49.176Z,996.3
2017-08-27T03:10:50.696Z,996.3
2017-08-27T03:11:52.246Z,996.3
2017-08-27T03:12:53.770Z,996.4
2017-08-27T03:13:55.414Z,996.4
2017-08-27T03:14:56.971Z,996.4
2017-08-27T03:15:58.553Z,996.4
2017-08-27T03:17:00.076Z,996.4
2017-08-27T03:18:01.617Z,996.4
2017-08-27T03:19:03.186Z,996.4
2017-08-27T03:20:04.846Z,996.4
2017-08-27T03:21:06.391Z,996.4
2017-08-27T03:22:08.033Z,996.4
2017-08-27T03:23:09.558Z,996.4
2017-08-27T03:24:11.205Z,996.4
2017-08-27T03:25:12.756Z,996.4
2017-08-27T03:26:14.413Z,996.5
2017-08-27T03:27:15.900Z,996.5
2017-08-27T03:28:17.374Z,996.5
2017-08-27T03:29:18.880Z,996.5
2017-08-27T03:30:20.418Z,996.5
2017-08-27T03:31:21.974Z,996.5
2017-08-27T03:32:23.524Z,996.5
2017-08-27T03:33:25.120Z,996.5
2017-08-27T03:34:26.647Z,996.6
2017-08-27T03:35:28.158Z,996.6
2017-08-27T03:36:29.724Z,996.5
2017-08-27T03:37:31.356Z,996.6
2017-08-27T03:38:32.866Z,996.6
2017-08-27T03:39:34.447Z,996.6
2017-08-27T03:40:35.994Z,996.6
2017-08-27T03:41:37.582Z,996.6
2017-08-27T03:42:39.170Z,996.6
2017-08-27T03:43:40.696Z,996.7
2017-08-27T03:44:42.241Z,996.7
2017-08-27T03:45:43.787Z,996.7
2017-08-27T03:46:45.313Z,996.7
2017-08-27T03:47:46.898Z,996.7
2017-08-27T03:48:48.417Z,996.7
2017-08-27T03:49:49.921Z,996.8
2017-08-27T03:50:51.446Z,996.8
2017-08-27T03:51:52.950Z,996.8
2017-08-27T03:52:54.546Z,996.8
2017-08-27T03:53:56.113Z,996.8
2017-08-27T03:54:57.749Z,996.8
2017-08-27T03:55:59.385Z,996.8
2017-08-27T03:57:00.931Z,996.8
2017-08-27T03:58:02.494Z,996.8
2017-08-27T03:59:04.171Z,996.8
2017-08-27T04:00:05.784Z,996.8
2017-08-27T04:01:07.301Z,996.8
2017-08-27T04:02:08.872Z,996.8
2017-08-27T04:03:10.471Z,996.8
2017-08-27T04:04:12.062Z,996.7
2017-08-27T04:05:13.580Z,996.8
2017-08-27T04:06:15.121Z,996.8
2017-08-27T04:07:16.600Z,996.8
2017-08-27T04:08:18.165Z,996.8
2017-08-27T04:09:19.726Z,996.8
2017-08-27T04:10:21.264Z,996.9
2017-08-27T04:11:22.801Z,996.8
2017-08-27T04:12:24.377Z,996.9
2017-08-27T04:13:25.903Z,996.9
2017-08-27T04:14:27.447Z,996.9
2017-08-27T04:15:29.004Z,996.9
2017-08-27T04:16:30.532Z,996.9
2017-08-27T04:17:32.177Z,996.9
2017-08-27T04:18:33.735Z,996.9
2017-08-27T04:19:35.293Z,996.9
2017-08-27T04:20:36.897Z,996.9
2017-08-27T04:21:38.407Z,996.9
2017-08-27T04:22:39.930Z,996.9
2017-08-27T04:23:41.426Z,996.9
2017-08-27T04:24:42.999Z,996.9
2017-08-27T04:25:44.508Z,996.9
2017-08-27T04:26:46.024Z,996.9
2017-08-27T04:27:47.601Z,996.9
2017-08-27T04:28:49.142Z,996.9
2017-08-27T04:29:50.708Z,997.0
2017-08-27T04:30:52.240Z,997.0
2017-08-27T04:31:53.807Z,997.0
2017-08-27T04:32:55.309Z,997.0
2017-08-27T04:33:56.901Z,997.0
2017-08-27T04:34:58.483Z,997.1
2017-08-27T04:36:00.073Z,997.1
2017-08-27T04:37:01.624Z,997.1
2017-08-27T04:38:03.182Z,997.0
2017-08-27T04:39:04.710Z,997.1
2017-08-27T04:40:06.266Z,997.1
2017-08-27T04:41:07.811Z,997.1
2017-08-27T04:42:09.376Z,997.1
2017-08-27T04:43:10.944Z,997.1
2017-08-27T04:44:12.521Z,997.1
2017-08-27T04:45:14.068Z,997.1
2017-08-27T04:46:15.541Z,997.1
2017-08-27T04:47:17.168Z,997.1
2017-08-27T04:48:18.705Z,997.2
2017-08-27T04:49:20.208Z,997.2
2017-08-27T04:50:21.672Z,997.2
2017-08-27T04:51:23.138Z,997.2
2017-08-27T04:52:24.736Z,997.2
2017-08-27T04:53:26.337Z,997.2
2017-08-27T04:54:27.852Z,997.2
2017-08-27T04:55:29.390Z,997.2
2017-08-27T04:56:31.003Z,997.2
2017-08-27T04:57:32.585Z,997.2
2017-08-27T04:58:34.099Z,997.1
2017-08-27T04:59:35.668Z,997.1
2017-08-27T05:00:37.217Z,997.2
2017-08-27T05:01:38.747Z,997.2
2017-08-27T05:02:40.255Z,997.2
2017-08-27T05:03:41.734Z,997.2
2017-08-27T05:04:43.330Z,997.2
2017-08-27T05:05:44.864Z,997.1
2017-08-27T05:06:46.371Z,997.2
2017-08-27T05:07:47.961Z,997.2
2017-08-27T05:08:49.544Z,997.2
2017-08-27T05:09:51.109Z,997.2
2017-08-27T05:10:52.638Z,997.2
2017-08-27T05:11:54.204Z,997.3
2017-08-27T05:12:55.683Z,997.2
2017-08-27T05:13:57.166Z,997.2
2017-08-27T05:14:58.725Z,997.2
2017-08-27T05:16:00.325Z,997.2
2017-08-27T05:17:01.828Z,997.2
2017-08-27T05:18:03.385Z,997.2
2017-08-27T05:19:04.982Z,997.3
2017-08-27T05:20:06.517Z,997.2
2017-08-27T05:21:08.168Z,997.3
2017-08-27T05:22:09.714Z,997.2
2017-08-27T05:23:11.242Z,997.3
2017-08-27T05:24:12.818Z,997.2
2017-08-27T05:25:14.418Z,997.3
2017-08-27T05:26:16.032Z,997.3
2017-08-27T05:27:17.595Z,997.3
2017-08-27T05:28:19.091Z,997.3
2017-08-27T05:29:20.698Z,997.3
2017-08-27T05:30:22.277Z,997.4
2017-08-27T05:31:23.803Z,997.4
2017-08-27T05:32:25.404Z,997.4
2017-08-27T05:33:26.947Z,997.4
2017-08-27T05:34:28.491Z,997.4
2017-08-27T05:35:30.091Z,997.4
2017-08-27T05:36:31.627Z,997.4
2017-08-27T05:37:33.192Z,997.5
2017-08-27T05:38:34.761Z,997.4
2017-08-27T05:39:36.329Z,997.5
2017-08-27T05:40:37.929Z,997.5
2017-08-27T05:41:39.479Z,997.5
2017-08-27T05:42:41.026Z,997.5
2017-08-27T05:43:42.559Z,997.5
2017-08-27T05:44:44.160Z,997.5
2017-08-27T05:45:45.640Z,997.6
2017-08-27T05:46:47.241Z,997.5
2017-08-27T05:47:48.768Z,997.5
2017-08-27T05:48:50.367Z,997.5
2017-08-27T05:49:51.989Z,997.5
2017-08-27T05:50:53.614Z,997.5
2017-08-27T05:51:55.143Z,997.5
2017-08-27T05:52:56.652Z,997.5
2017-08-27T05:53:58.269Z,997.5
2017-08-27T05:54:59.847Z,997.5
2017-08-27T05:56:01.411Z,997.4
2017-08-27T05:57:03.009Z,997.5
2017-08-27T05:58:04.526Z,997.5
2017-08-27T05:59:06.068Z,997.5
2017-08-27T06:00:07.639Z,997.4
2017-08-27T06:01:09.147Z,997.5
2017-08-27T06:02:10.641Z,997.5
2017-08-27T06:03:12.172Z,997.5
2017-08-27T06:04:13.737Z,997.5
2017-08-27T06:05:15.225Z,997.5
2017-08-27T06:06:16.922Z,997.6
2017-08-27T06:07:18.493Z,997.5
2017-08-27T06:08:20.088Z,997.5
2017-08-27T06:09:21.655Z,997.5
2017-08-27T06:10:23.222Z,997.6
2017-08-27T06:11:24.769Z,997.6
2017-08-27T06:12:26.336Z,997.6
2017-08-27T06:13:27.931Z,997.6
2017-08-27T06:14:29.477Z,997.6
2017-08-27T06:15:31.049Z,997.6
2017-08-27T06:16:32.767Z,997.6
2017-08-27T06:17:34.409Z,997.6
2017-08-27T06:18:35.918Z,997.7
2017-08-27T06:19:37.432Z,997.7
2017-08-27T06:20:39.020Z,997.7
2017-08-27T06:21:40.573Z,997.7
2017-08-27T06:22:42.083Z,997.7
2017-08-27T06:23:43.697Z,997.7
2017-08-27T06:24:46.757Z,997.7
2017-08-27T06:25:48.207Z,997.6
2017-08-27T06:26:49.619Z,997.7
2017-08-27T06:27:51.068Z,997.7
2017-08-27T06:28:52.476Z,997.7
2017-08-27T06:29:53.900Z,997.7
2017-08-27T06:30:55.312Z,997.7
2017-08-27T06:31:56.735Z,997.7
2017-08-27T06:32:58.170Z,997.7
2017-08-27T06:33:59.591Z,997.7
2017-08-27T06:35:01.051Z,997.6
2017-08-27T06:36:02.473Z,997.7
2017-08-27T06:37:03.883Z,997.7
2017-08-27T06:38:05.413Z,997.7
2017-08-27T06:39:06.841Z,997.7
2017-08-27T06:40:08.271Z,997.7
2017-08-27T06:41:09.678Z,997.8
2017-08-27T06:42:11.184Z,997.7
2017-08-27T06:43:12.568Z,997.8
2017-08-27T06:44:13.981Z,997.8
2017-08-27T06:45:15.397Z,997.8
2017-08-27T06:46:17.032Z,997.8
2017-08-27T06:47:18.573Z,997.9
2017-08-27T06:48:20.146Z,997.9
2017-08-27T06:49:21.747Z,998.0
2017-08-27T06:50:23.184Z,998.0
2017-08-27T06:51:24.625Z,997.9
2017-08-27T06:52:26.072Z,997.9
2017-08-27T06:53:27.610Z,997.9
2017-08-27T06:54:29.108Z,997.9
2017-08-27T06:55:30.523Z,997.9
2017-08-27T06:56:32.033Z,998.0
2017-08-27T06:57:33.552Z,998.0
2017-08-27T06:58:35.047Z,998.0
2017-08-27T06:59:36.571Z,998.0
2017-08-27T07:00:38.088Z,998.0
2017-08-27T07:01:39.642Z,998.0
2017-08-27T07:02:41.143Z,998.0
2017-08-27T07:03:42.656Z,998.0
2017-08-27T07:04:44.196Z,998.0
2017-08-27T07:05:45.754Z,998.0
2017-08-27T07:06:47.303Z,998.0
2017-08-27T07:07:48.892Z,998.1
2017-08-27T07:08:50.487Z,998.1
2017-08-27T07:09:52.074Z,998.0
2017-08-27T07:10:53.779Z,998.0
2017-08-27T07:11:55.402Z,998.1
2017-08-27T07:12:56.975Z,998.1
2017-08-27T07:13:58.741Z,998.1
2017-08-27T07:15:00.384Z,998.2
2017-08-27T07:16:02.167Z,998.2
2017-08-27T07:17:05.251Z,998.2
2017-08-27T07:18:07.359Z,998.2
2017-08-27T07:19:08.944Z,998.3
2017-08-27T07:20:10.676Z,998.3
2017-08-27T07:21:12.233Z,998.3
2017-08-27T07:22:14.020Z,998.3
2017-08-27T07:23:15.755Z,998.3
2017-08-27T07:24:17.251Z,998.3
2017-08-27T07:25:18.861Z,998.3
2017-08-27T07:26:20.432Z,998.3
2017-08-27T07:27:22.021Z,998.3
2017-08-27T07:28:23.971Z,998.3
2017-08-27T07:29:25.584Z,998.3
2017-08-27T07:30:27.117Z,998.3
2017-08-27T07:31:29.207Z,998.4
2017-08-27T07:32:30.924Z,998.4
2017-08-27T07:33:32.464Z,998.4
2017-08-27T07:34:34.034Z,998.4
2017-08-27T07:35:35.597Z,998.4
2017-08-27T07:36:37.142Z,998.3
2017-08-27T07:37:38.638Z,998.4
2017-08-27T07:38:40.190Z,998.3
2017-08-27T07:39:41.753Z,998.3
2017-08-27T07:40:43.243Z,998.3
2017-08-27T07:41:44.781Z,998.3
2017-08-27T07:42:46.428Z,998.3
2017-08-27T07:43:47.915Z,998.3
2017-08-27T07:44:49.518Z,998.4
2017-08-27T07:45:51.030Z,998.3
2017-08-27T07:46:52.607Z,998.4
2017-08-27T07:47:54.190Z,998.3
2017-08-27T07:48:55.760Z,998.3
2017-08-27T07:49:57.357Z,998.3
2017-08-27T07:50:58.909Z,998.3
2017-08-27T07:52:00.503Z,998.4
2017-08-27T07:53:02.172Z,998.3
2017-08-27T07:54:03.676Z,998.3
2017-08-27T07:55:05.261Z,998.4
2017-08-27T07:56:06.817Z,998.4
2017-08-27T07:57:08.409Z,998.4
2017-08-27T07:58:09.990Z,998.3
2017-08-27T07:59:11.739Z,998.4
2017-08-27T08:00:13.431Z,998.4
2017-08-27T08:01:14.978Z,998.4
2017-08-27T08:02:16.495Z,998.4
2017-08-27T08:03:18.007Z,998.4
2017-08-27T08:04:19.546Z,998.5
2017-08-27T08:05:21.173Z,998.5
2017-08-27T08:06:22.736Z,998.5
2017-08-27T08:07:24.301Z,998.5
2017-08-27T08:08:25.907Z,998.5
2017-08-27T08:09:27.472Z,998.6
2017-08-27T08:10:29.037Z,998.6
2017-08-27T08:11:30.602Z,998.6
2017-08-27T08:12:32.106Z,998.6
2017-08-27T08:13:33.719Z,998.6
2017-08-27T08:14:35.243Z,998.6
2017-08-27T08:15:36.816Z,998.7
2017-08-27T08:16:38.360Z,998.7
2017-08-27T08:17:39.962Z,998.6
2017-08-27T08:18:41.501Z,998.6
2017-08-27T08:19:43.154Z,998.6
2017-08-27T08:20:44.737Z,998.6
2017-08-27T08:21:46.266Z,998.6
2017-08-27T08:22:47.867Z,998.6
2017-08-27T08:23:49.398Z,998.6
2017-08-27T08:24:51.022Z,998.6
2017-08-27T08:25:52.614Z,998.5
2017-08-27T08:26:54.181Z,998.6
2017-08-27T08:27:55.801Z,998.6
2017-08-27T08:28:57.361Z,998.6
2017-08-27T08:29:58.960Z,998.6
2017-08-27T08:31:00.472Z,998.6
2017-08-27T08:32:01.982Z,998.6
2017-08-27T08:33:03.618Z,998.6
2017-08-27T08:34:05.187Z,998.6
2017-08-27T08:35:06.763Z,998.7
2017-08-27T08:36:08.394Z,998.8
2017-08-27T08:37:09.938Z,998.8
2017-08-27T08:38:11.491Z,998.8
2017-08-27T08:39:13.123Z,998.8
2017-08-27T08:40:14.628Z,998.7
2017-08-27T08:41:16.289Z,998.7
2017-08-27T08:42:17.865Z,998.7
2017-08-27T08:43:19.466Z,998.7
2017-08-27T08:44:20.976Z,998.7
2017-08-27T08:45:22.555Z,998.7
2017-08-27T08:46:24.122Z,998.7
2017-08-27T08:47:25.627Z,998.8
2017-08-27T08:48:27.190Z,998.8
2017-08-27T08:49:28.812Z,998.9
2017-08-27T08:50:30.383Z,998.9
2017-08-27T08:51:31.921Z,998.9
2017-08-27T08:52:33.479Z,998.9
2017-08-27T08:53:35.067Z,998.9
2017-08-27T08:54:36.644Z,998.9
2017-08-27T08:55:38.265Z,999.0
2017-08-27T08:56:39.914Z,998.9
2017-08-27T08:57:41.457Z,998.8
2017-08-27T08:58:43.137Z,998.8
2017-08-27T08:59:44.737Z,998.7
2017-08-27T09:00:46.239Z,998.8
2017-08-27T09:01:47.814Z,998.9
2017-08-27T09:02:49.445Z,998.9
2017-08-27T09:03:50.957Z,998.9
2017-08-27T09:04:52.536Z,998.9
2017-08-27T09:05:54.035Z,998.8
2017-08-27T09:06:55.649Z,999.0
2017-08-27T09:07:57.192Z,998.9
2017-08-27T09:08:58.810Z,998.9
2017-08-27T09:10:00.344Z,998.8
2017-08-27T09:11:01.961Z,998.9
2017-08-27T09:12:03.603Z,998.9
2017-08-27T09:13:05.197Z,998.9
2017-08-27T09:14:06.799Z,998.7
2017-08-27T09:15:08.319Z,998.7
2017-08-27T09:16:09.916Z,998.7
2017-08-27T09:17:11.618Z,998.7
2017-08-27T09:18:13.220Z,998.8
2017-08-27T09:19:14.789Z,998.9
2017-08-27T09:20:16.392Z,998.9
2017-08-27T09:21:17.983Z,998.9
2017-08-27T09:22:19.539Z,999.0
2017-08-27T09:23:21.088Z,999.0
2017-08-27T09:24:22.716Z,999.0
2017-08-27T09:25:24.296Z,999.0
2017-08-27T09:26:25.884Z,999.1
2017-08-27T09:27:27.461Z,999.1
2017-08-27T09:28:29.132Z,999.1
2017-08-27T09:29:30.706Z,999.0
2017-08-27T09:30:32.309Z,999.2
2017-08-27T09:31:33.882Z,999.0
2017-08-27T09:32:35.512Z,998.9
2017-08-27T09:33:37.165Z,999.0
2017-08-27T09:34:38.794Z,998.9
2017-08-27T09:35:40.397Z,998.9
2017-08-27T09:36:41.970Z,998.9
2017-08-27T09:37:43.585Z,998.8
2017-08-27T09:38:45.132Z,998.7
2017-08-27T09:39:46.691Z,998.7
2017-08-27T09:40:48.267Z,998.7
2017-08-27T09:41:49.833Z,998.8
2017-08-27T09:42:51.404Z,998.8
2017-08-27T09:43:52.987Z,998.8
2017-08-27T09:44:54.577Z,998.9
2017-08-27T09:45:56.122Z,998.9
2017-08-27T09:46:57.726Z,998.9
2017-08-27T09:47:59.276Z,999.0
2017-08-27T09:49:00.859Z,999.1
2017-08-27T09:50:02.557Z,999.1
2017-08-27T09:51:04.134Z,999.0
2017-08-27T09:52:05.789Z,999.1
2017-08-27T09:53:07.414Z,999.1
2017-08-27T09:54:09.065Z,999.1
2017-08-27T09:55:10.703Z,999.1
2017-08-27T09:56:12.238Z,999.1
2017-08-27T09:57:13.836Z,999.2
2017-08-27T09:58:15.378Z,999.1
2017-08-27T09:59:16.945Z,999.2
2017-08-27T10:00:18.502Z,999.3
2017-08-27T10:01:20.008Z,999.4
2017-08-27T10:02:21.626Z,999.1
2017-08-27T10:03:23.164Z,999.1
2017-08-27T10:04:24.711Z,999.3
2017-08-27T10:05:26.266Z,999.3
2017-08-27T10:06:27.781Z,999.3
2017-08-27T10:07:29.407Z,999.3
2017-08-27T10:08:30.927Z,999.1
2017-08-27T10:09:32.525Z,999.2
2017-08-27T10:10:34.214Z,999.1
2017-08-27T10:11:35.856Z,999.0
2017-08-27T10:12:37.411Z,999.1
2017-08-27T10:13:39.023Z,999.2
2017-08-27T10:14:40.606Z,999.2
2017-08-27T10:15:42.181Z,999.2
2017-08-27T10:16:43.842Z,999.0
2017-08-27T10:17:45.423Z,999.1
2017-08-27T10:18:47.002Z,999.2
2017-08-27T10:19:48.592Z,999.1
2017-08-27T10:20:50.283Z,999.1
2017-08-27T10:21:51.843Z,999.1
2017-08-27T10:22:53.516Z,999.2
2017-08-27T10:23:55.143Z,999.1
2017-08-27T10:24:56.756Z,999.1
2017-08-27T10:25:58.316Z,999.2
2017-08-27T10:26:59.971Z,999.1
2017-08-27T10:28:01.635Z,999.1
2017-08-27T10:29:03.252Z,999.3
2017-08-27T10:30:04.798Z,999.3
2017-08-27T10:31:06.355Z,999.3
2017-08-27T10:32:07.970Z,999.4
2017-08-27T10:33:09.579Z,999.4
2017-08-27T10:34:11.160Z,999.2
2017-08-27T10:35:12.882Z,999.1
2017-08-27T10:36:14.537Z,999.0
2017-08-27T10:37:16.048Z,999.0
2017-08-27T10:38:17.640Z,999.1
2017-08-27T10:39:19.241Z,999.1
2017-08-27T10:40:20.752Z,999.1
2017-08-27T10:41:22.316Z,999.2
2017-08-27T10:42:23.942Z,999.4
2017-08-27T10:43:25.464Z,999.4
2017-08-27T10:44:27.103Z,999.1
2017-08-27T10:45:28.773Z,999.4
2017-08-27T10:46:30.311Z,999.3
2017-08-27T10:47:31.891Z,999.3
2017-08-27T10:48:33.472Z,999.3
2017-08-27T10:49:35.097Z,999.2
2017-08-27T10:50:36.622Z,999.3
2017-08-27T10:51:38.209Z,999.2
2017-08-27T10:52:39.905Z,999.3
2017-08-27T10:53:41.462Z,999.3
2017-08-27T10:54:43.133Z,999.4
2017-08-27T10:55:44.692Z,999.3
2017-08-27T10:56:46.237Z,999.4
2017-08-27T10:57:47.862Z,999.4
2017-08-27T10:58:49.472Z,999.3
2017-08-27T10:59:51.099Z,999.4
2017-08-27T11:00:52.727Z,999.8
2017-08-27T11:01:54.256Z,999.3
2017-08-27T11:02:55.886Z,999.4
2017-08-27T11:03:57.500Z,999.2
2017-08-27T11:04:59.162Z,999.3
2017-08-27T11:06:00.814Z,1000.1
2017-08-27T11:07:02.530Z,1000.2
2017-08-27T11:08:04.040Z,1000.2
2017-08-27T11:09:05.614Z,1000.2
2017-08-27T11:10:07.249Z,1000.2
2017-08-27T11:11:08.833Z,1000.3
2017-08-27T11:12:10.499Z,1000.2
2017-08-27T11:13:12.199Z,1000.2
2017-08-27T11:14:13.697Z,1000.1
2017-08-27T11:15:15.290Z,1000.2
2017-08-27T11:16:16.935Z,1000.3
2017-08-27T11:17:18.520Z,999.7
2017-08-27T11:18:20.098Z,999.2
2017-08-27T11:19:21.637Z,999.2
2017-08-27T11:20:23.172Z,999.1
2017-08-27T11:21:24.762Z,1000.1
2017-08-27T11:22:26.323Z,999.6
2017-08-27T11:23:27.912Z,1000.2
2017-08-27T11:24:29.413Z,1000.3
2017-08-27T11:25:31.009Z,1000.4
2017-08-27T11:26:32.649Z,1000.4
2017-08-27T11:27:34.194Z,1000.4
2017-08-27T11:28:35.791Z,1000.4
2017-08-27T11:29:37.348Z,1000.5
2017-08-27T11:30:38.944Z,1000.4
2017-08-27T11:31:40.507Z,1000.4
2017-08-27T11:32:42.112Z,1000.5
2017-08-27T11:33:43.756Z,1000.5
2017-08-27T11:34:45.358Z,1000.5
2017-08-27T11:35:46.965Z,1000.5
2017-08-27T11:36:48.576Z,1000.1
2017-08-27T11:37:50.149Z,1000.4
2017-08-27T11:38:51.729Z,1000.4
2017-08-27T11:39:53.244Z,1000.4
2017-08-27T11:40:54.818Z,1000.5
2017-08-27T11:41:56.354Z,1000.5
2017-08-27T11:42:57.952Z,1000.5
2017-08-27T11:43:59.474Z,1000.4
2017-08-27T11:45:01.089Z,1000.4
2017-08-27T11:46:02.685Z,1000.4
2017-08-27T11:47:04.228Z,1000.4
2017-08-27T11:48:05.875Z,1000.3
2017-08-27T11:49:07.583Z,1000.3
2017-08-27T11:50:09.122Z,1000.3
2017-08-27T11:51:10.735Z,1000.2
2017-08-27T11:52:12.345Z,1000.2
2017-08-27T11:53:13.980Z,1000.2
2017-08-27T11:54:15.531Z,1000.3
2017-08-27T11:55:17.166Z,1000.3
2017-08-27T11:56:18.831Z,1000.2
2017-08-27T11:57:20.435Z,1000.2
2017-08-27T11:58:22.027Z,1000.2
2017-08-27T11:59:23.593Z,1000.2
2017-08-27T12:00:25.237Z,1000.0
2017-08-27T12:01:26.839Z,1000.1
2017-08-27T12:02:28.415Z,1000.1
2017-08-27T12:03:29.930Z,1000.1
2017-08-27T12:04:31.482Z,1000.1
2017-08-27T12:05:33.092Z,1000.2
2017-08-27T12:06:34.629Z,1000.1
2017-08-27T12:07:36.189Z,1000.1
2017-08-27T12:08:37.783Z,1000.2
2017-08-27T12:09:39.315Z,1000.2
2017-08-27T12:10:40.876Z,1000.1
2017-08-27T12:11:42.437Z,1000.1
2017-08-27T12:12:44.042Z,1000.1
2017-08-27T12:13:45.639Z,1000.0
2017-08-27T12:14:47.259Z,1000.0
2017-08-27T12:15:48.844Z,1000.1
2017-08-27T12:16:50.387Z,1000.1
2017-08-27T12:17:51.989Z,1000.0
2017-08-27T12:18:53.637Z,1000.0
2017-08-27T12:19:55.165Z,1000.0
2017-08-27T12:20:56.781Z,999.7
2017-08-27T12:21:58.354Z,999.2
2017-08-27T12:22:59.935Z,999.6
2017-08-27T12:24:01.621Z,999.2
2017-08-27T12:25:03.170Z,999.0
2017-08-27T12:26:04.730Z,999.0
2017-08-27T12:27:06.374Z,999.8
2017-08-27T12:28:07.989Z,999.9
2017-08-27T12:29:09.612Z,999.8
2017-08-27T12:30:11.262Z,999.9
2017-08-27T12:31:12.844Z,999.9
2017-08-27T12:32:14.386Z,999.9
2017-08-27T12:33:15.953Z,999.7
2017-08-27T12:34:17.567Z,999.9
2017-08-27T12:35:19.141Z,1000.0
2017-08-27T12:36:20.813Z,999.6
2017-08-27T12:37:22.419Z,1000.0
2017-08-27T12:38:23.970Z,999.3
2017-08-27T12:39:25.521Z,999.9
2017-08-27T12:40:27.093Z,999.6
2017-08-27T12:41:28.640Z,999.9
2017-08-27T12:42:30.315Z,999.1
2017-08-27T12:43:31.886Z,999.1
2017-08-27T12:44:33.449Z,999.0
2017-08-27T12:45:35.401Z,999.0
2017-08-27T12:46:36.976Z,999.0
2017-08-27T12:47:38.666Z,999.0
2017-08-27T12:48:40.229Z,999.6
2017-08-27T12:49:42.373Z,999.7
2017-08-27T12:50:43.914Z,999.7
2017-08-27T12:51:45.432Z,999.8
2017-08-27T12:52:47.074Z,999.7
2017-08-27T12:53:48.794Z,999.2
2017-08-27T12:54:50.407Z,999.6
2017-08-27T12:55:52.464Z,999.1
2017-08-27T12:56:54.050Z,999.1
2017-08-27T12:57:55.575Z,999.0
2017-08-27T12:58:57.249Z,999.0
2017-08-27T12:59:58.994Z,999.0
2017-08-27T13:01:00.637Z,999.0
2017-08-27T13:02:02.153Z,999.0
2017-08-27T13:03:03.746Z,998.9
2017-08-27T13:04:05.344Z,999.0
2017-08-27T13:05:06.940Z,999.0
2017-08-27T13:06:08.630Z,999.4
2017-08-27T13:07:10.178Z,999.5
2017-08-27T13:08:11.775Z,999.5
2017-08-27T13:09:14.312Z,999.5
2017-08-27T13:10:17.020Z,999.4